Time;durP1;ratioP1;P1;durP2;ratioP2;P2;SDS_P1;SDS_P2;PMS_P1;PMS_P2;Temp;Humidity;BMP_temperature;BMP_pressure;BME280_temperature;BME280_humidity;BME280_pressure;Samples;Min_cycle;Max_cycle;Signal;HPM_P1;HPM_P2
2023/11/17 00:02:21;;;;;;;3.28;1.42;;;15.60;74.10;;;;;;10408435;28;20475;-58
2023/11/17 00:07:22;;;;;;;1.90;1.33;;;15.60;73.90;;;;;;10408720;28;20029;-58
2023/11/17 00:12:23;;;;;;;3.05;1.60;;;15.60;73.90;;;;;;10423488;28;20080;-58
2023/11/17 00:17:24;;;;;;;2.58;1.63;;;15.60;74.00;;;;;;10410403;28;20033;-58
2023/11/17 00:22:26;;;;;;;4.97;1.92;;;15.50;73.90;;;;;;10416868;28;20033;-59
2023/11/17 00:27:26;;;;;;;1.73;1.27;;;15.50;73.90;;;;;;10417132;28;20061;-58
2023/11/17 00:32:27;;;;;;;2.55;1.15;;;15.50;74.00;;;;;;10416718;28;20057;-58
2023/11/17 00:37:28;;;;;;;3.38;1.50;;;15.50;74.00;;;;;;10416463;28;20036;-58
2023/11/17 00:42:28;;;;;;;1.85;1.00;;;15.50;74.00;;;;;;10416167;28;20035;-59
2023/11/17 00:47:30;;;;;;;2.85;1.40;;;15.50;74.10;;;;;;10416136;28;20029;-59
2023/11/17 00:52:30;;;;;;;1.63;1.15;;;15.40;73.90;;;;;;10415601;28;20120;-58
2023/11/17 00:57:32;;;;;;;1.90;1.08;;;15.40;74.00;;;;;;10415758;28;20034;-58
2023/11/17 01:02:33;;;;;;;1.73;1.10;;;15.50;74.00;;;;;;10415335;28;20025;-59
2023/11/17 01:07:34;;;;;;;2.47;1.10;;;15.40;73.90;;;;;;10415353;28;20481;-59
2023/11/17 01:12:35;;;;;;;1.85;1.10;;;15.40;73.90;;;;;;10414901;28;20071;-58
2023/11/17 01:17:35;;;;;;;2.30;1.30;;;15.40;73.80;;;;;;10415432;28;20380;-58
2023/11/17 01:22:36;;;;;;;1.80;1.10;;;15.40;73.70;;;;;;10414865;28;20045;-58
2023/11/17 01:27:39;;;;;;;2.55;1.38;;;15.40;73.80;;;;;;10413411;28;20648;-58
2023/11/17 01:32:40;;;;;;;1.48;1.33;;;15.40;73.80;;;;;;10414017;28;20053;-58
2023/11/17 01:37:40;;;;;;;2.03;1.60;;;15.40;73.90;;;;;;10414059;28;20025;-58
2023/11/17 01:42:42;;;;;;;3.10;2.13;;;15.40;73.70;;;;;;10412213;28;20022;-58
2023/11/17 01:47:43;;;;;;;2.55;1.15;;;15.30;73.70;;;;;;10414044;28;20079;-59
2023/11/17 01:52:44;;;;;;;2.20;1.00;;;15.30;73.80;;;;;;10412128;28;20099;-59
2023/11/17 01:57:46;;;;;;;1.73;1.05;;;15.30;73.60;;;;;;10413616;28;20030;-58
2023/11/17 02:02:51;;;;;;;2.03;1.25;;;15.30;73.60;;;;;;10413102;28;20030;-58
2023/11/17 02:08:26;;;;;;;2.17;1.85;;;15.30;73.60;;;;;;10413160;28;20033;-58
2023/11/17 02:13:39;;;;;;;1.95;1.15;;;15.30;73.60;;;;;;10412536;28;20133;-58
2023/11/17 02:18:49;;;;;;;2.28;1.33;;;15.30;73.60;;;;;;10411806;28;20053;-58
2023/11/17 02:23:51;;;;;;;;;;;15.20;73.50;;;;;;10430642;28;20404;-58
2023/11/17 02:29:00;;;;;;;2.72;1.40;;;15.20;73.60;;;;;;10444050;28;19909;-58
2023/11/17 02:34:08;;;;;;;2.28;1.25;;;15.20;73.50;;;;;;10411701;28;20033;-58
2023/11/17 02:39:15;;;;;;;5.60;1.38;;;15.20;73.60;;;;;;10411975;28;20039;-59
2023/11/17 02:44:16;;;;;;;1.85;1.63;;;15.20;73.50;;;;;;10409984;28;20108;-58
2023/11/17 02:49:22;;;;;;;2.65;1.50;;;15.20;73.30;;;;;;10411384;28;20116;-57
2023/11/17 02:54:27;;;;;;;2.33;1.35;;;15.20;73.60;;;;;;10410892;28;20033;-58
2023/11/17 02:59:32;;;;;;;2.17;1.15;;;15.20;73.50;;;;;;10411232;28;20029;-58
2023/11/17 03:04:37;;;;;;;3.10;1.40;;;15.20;73.60;;;;;;10410552;28;20067;-58
2023/11/17 03:09:38;;;;;;;2.70;1.70;;;15.20;73.50;;;;;;10410790;28;20036;-58
2023/11/17 03:14:39;;;;;;;1.30;0.90;;;15.20;73.50;;;;;;10410422;28;20048;-59
2023/11/17 03:19:40;;;;;;;2.35;1.25;;;15.10;73.50;;;;;;10410545;28;20041;-58
2023/11/17 03:24:43;;;;;;;2.03;0.98;;;15.10;73.40;;;;;;10410043;28;20029;-58
2023/11/17 03:29:46;;;;;;;2.20;1.33;;;15.10;73.30;;;;;;10410003;28;20080;-58
2023/11/17 03:34:47;;;;;;;1.77;1.10;;;15.10;73.30;;;;;;10409329;28;20046;-58
2023/11/17 03:39:48;;;;;;;1.55;1.13;;;15.10;73.30;;;;;;10408548;28;20029;-59
2023/11/17 03:44:49;;;;;;;2.28;1.15;;;15.10;73.40;;;;;;10409408;28;20451;-59
2023/11/17 03:49:49;;;;;;;2.17;1.20;;;15.10;73.40;;;;;;10409377;28;20381;-58
2023/11/17 03:54:51;;;;;;;2.42;1.40;;;15.10;73.20;;;;;;10408005;28;20048;-59
2023/11/17 03:59:53;;;;;;;2.00;1.00;;;15.10;73.30;;;;;;10407806;28;20033;-59
2023/11/17 04:04:54;;;;;;;1.98;1.23;;;15.00;73.30;;;;;;10408824;28;20641;-58
2023/11/17 04:09:54;;;;;;;1.50;1.00;;;15.10;73.30;;;;;;10408888;28;20029;-57
2023/11/17 04:14:55;;;;;;;3.40;1.10;;;15.00;73.30;;;;;;10408578;28;20025;-58
2023/11/17 04:19:56;;;;;;;2.22;1.10;;;15.00;73.30;;;;;;10408664;28;20025;-58
2023/11/17 04:24:57;;;;;;;1.90;1.33;;;15.00;73.40;;;;;;10421358;28;20048;-58
2023/11/17 04:29:57;;;;;;;1.70;1.05;;;15.00;73.40;;;;;;10423400;28;20572;-58
2023/11/17 04:35:00;;;;;;;2.15;1.23;;;15.00;73.30;;;;;;10421465;28;20033;-58
2023/11/17 04:40:01;;;;;;;1.90;1.10;;;15.00;73.30;;;;;;10425195;28;20033;-58
2023/11/17 04:45:03;;;;;;;2.33;1.30;;;15.00;73.20;;;;;;10421069;28;20111;-59
2023/11/17 04:50:08;;;;;;;1.85;1.30;;;15.00;73.10;;;;;;10423954;28;20377;-58
2023/11/17 04:55:13;;;;;;;2.10;1.20;;;14.90;73.30;;;;;;10423387;28;20025;-58
2023/11/17 05:00:16;;;;;;;3.03;1.00;;;14.90;73.20;;;;;;10417164;28;20036;-58
2023/11/17 05:05:18;;;;;;;1.85;1.05;;;14.90;73.40;;;;;;10410701;28;20030;-59
2023/11/17 05:10:19;;;;;;;2.13;1.17;;;14.90;73.30;;;;;;10415392;28;20644;-59
2023/11/17 05:15:21;;;;;;;8.80;1.60;;;14.90;73.20;;;;;;10430524;28;20396;-59
2023/11/17 05:20:24;;;;;;;2.17;1.25;;;14.90;73.20;;;;;;10429780;28;20021;-59
2023/11/17 05:25:27;;;;;;;3.13;1.20;;;14.90;73.90;;;;;;10427438;28;20473;-59
2023/11/17 05:30:28;;;;;;;1.60;1.10;;;14.90;73.10;;;;;;10428967;28;20052;-59
2023/11/17 05:35:29;;;;;;;1.95;1.40;;;14.90;73.00;;;;;;10432372;28;20509;-59
2023/11/17 05:40:33;;;;;;;3.17;1.20;;;14.90;73.10;;;;;;10420982;28;20684;-59
2023/11/17 05:45:34;;;;;;;1.55;0.93;;;15.00;73.60;;;;;;10413819;28;20079;-59
2023/11/17 05:50:35;;;;;;;1.83;0.95;;;15.20;72.80;;;;;;10413894;28;20029;-59
2023/11/17 05:55:36;;;;;;;4.78;1.70;;;15.50;71.70;;;;;;10415858;28;20479;-56
2023/11/17 06:00:37;;;;;;;7.80;1.23;;;15.90;70.50;;;;;;10422136;28;20403;-53
2023/11/17 06:05:37;;;;;;;8.25;1.77;;;15.90;70.90;;;;;;10413315;28;20042;-54
2023/11/17 06:10:38;;;;;;;7.57;1.60;;;16.10;70.20;;;;;;10413294;28;20025;-54
2023/11/17 06:15:39;;;;;;;13.95;1.90;;;16.40;70.20;;;;;;10411376;28;20033;-54
2023/11/17 06:20:40;;;;;;;14.07;2.28;;;16.50;70.70;;;;;;10412717;28;20036;-55
2023/11/17 06:25:41;;;;;;;14.77;2.97;;;16.60;70.60;;;;;;10412384;28;20493;-55
2023/11/17 06:30:43;;;;;;;14.68;3.47;;;16.60;70.60;;;;;;10412717;28;20640;-54
2023/11/17 06:35:44;;;;;;;13.93;2.97;;;16.70;70.20;;;;;;10411819;28;20033;-54
2023/11/17 06:40:44;;;;;;;19.30;3.38;;;16.80;70.50;;;;;;10414564;28;20025;-55
2023/11/17 06:45:52;;;;;;;24.38;3.20;;;16.80;70.50;;;;;;10427347;28;20029;-55
2023/11/17 06:50:52;;;;;;;12.82;3.30;;;16.90;70.30;;;;;;10412286;28;20532;-55
2023/11/17 06:55:53;;;;;;;14.50;3.95;;;17.00;69.60;;;;;;10409425;28;20022;-55
2023/11/17 07:00:54;;;;;;;22.67;3.42;;;17.10;69.40;;;;;;10408087;28;20032;-54
2023/11/17 07:05:55;;;;;;;23.52;5.55;;;17.10;68.90;;;;;;10410450;28;20037;-55
2023/11/17 07:10:57;;;;;;;17.08;2.97;;;17.10;69.00;;;;;;10419582;28;20033;-54
2023/11/17 07:15:57;;;;;;;12.45;3.17;;;17.00;69.50;;;;;;10410280;28;20033;-54
2023/11/17 07:20:58;;;;;;;16.58;3.97;;;17.10;68.90;;;;;;10409493;28;20029;-55
2023/11/17 07:25:59;;;;;;;8.45;2.55;;;17.20;68.10;;;;;;10408576;28;20118;-54
2023/11/17 07:31:00;;;;;;;9.20;3.22;;;17.30;67.70;;;;;;10421408;28;20049;-56
2023/11/17 07:36:00;;;;;;;15.68;3.63;;;17.40;67.30;;;;;;10413295;28;20151;-56
2023/11/17 07:41:02;;;;;;;8.73;2.17;;;17.30;67.20;;;;;;10419044;28;20427;-56
2023/11/17 07:46:03;;;;;;;9.60;2.65;;;17.40;66.80;;;;;;10447894;28;20037;-55
2023/11/17 07:51:03;;;;;;;9.35;2.67;;;17.40;66.50;;;;;;10409665;28;20025;-56
2023/11/17 07:56:06;;;;;;;9.15;2.70;;;17.50;66.20;;;;;;10413220;28;20065;-54
2023/11/17 08:01:09;;;;;;;6.00;2.50;;;17.40;66.30;;;;;;10410191;28;20029;-53
2023/11/17 08:06:10;;;;;;;13.35;2.05;;;17.50;66.30;;;;;;10408659;28;20029;-54
2023/11/17 08:11:12;;;;;;;8.00;2.30;;;17.50;66.40;;;;;;10408404;28;20021;-54
2023/11/17 08:16:12;;;;;;;5.72;2.15;;;17.60;66.50;;;;;;10408322;28;20034;-55
2023/11/17 08:21:13;;;;;;;6.63;2.45;;;17.60;66.40;;;;;;10408614;28;20021;-54
2023/11/17 08:26:15;;;;;;;12.82;2.20;;;17.50;66.70;;;;;;10411737;28;20095;-54
2023/11/17 08:31:16;;;;;;;6.43;2.28;;;17.60;66.10;;;;;;10426465;28;20048;-55
2023/11/17 08:36:17;;;;;;;5.13;2.25;;;17.70;65.80;;;;;;10410945;28;20477;-54
2023/11/17 08:41:18;;;;;;;6.13;1.85;;;17.80;65.60;;;;;;10414611;28;20108;-54
2023/11/17 08:46:23;;;;;;;6.93;2.17;;;17.80;65.30;;;;;;10416176;28;20036;-53
2023/11/17 08:51:24;;;;;;;10.98;2.10;;;17.80;65.30;;;;;;10410785;28;20037;-54
2023/11/17 08:56:24;;;;;;;6.38;1.95;;;17.90;65.40;;;;;;10412975;28;20029;-53
2023/11/17 09:01:25;;;;;;;4.25;2.58;;;17.90;65.40;;;;;;10415091;28;20033;-53
2023/11/17 09:06:26;;;;;;;7.13;1.98;;;17.90;65.60;;;;;;10415396;28;20031;-53
2023/11/17 09:11:26;;;;;;;5.20;2.50;;;17.80;65.60;;;;;;10419888;28;20025;-54
2023/11/17 09:16:27;;;;;;;5.45;2.20;;;17.80;66.00;;;;;;10415297;28;20041;-53
2023/11/17 09:21:31;;;;;;;3.75;1.67;;;17.70;66.20;;;;;;10414286;28;20037;-53
2023/11/17 09:26:32;;;;;;;3.80;2.10;;;17.60;66.50;;;;;;10419189;28;20037;-55
2023/11/17 09:31:32;;;;;;;5.05;2.58;;;17.50;67.00;;;;;;10426381;28;20123;-54
2023/11/17 09:36:36;;;;;;;7.18;2.40;;;17.50;67.10;;;;;;10412954;28;20034;-53
2023/11/17 09:41:38;;;;;;;5.78;2.90;;;17.40;67.40;;;;;;10413745;28;20033;-53
2023/11/17 09:46:53;;;;;;;4.05;1.70;;;17.40;67.50;;;;;;10413762;28;20037;-54
2023/11/17 09:51:58;;;;;;;4.32;1.90;;;17.40;67.60;;;;;;10413713;28;20026;-54
2023/11/17 09:56:59;;;;;;;3.55;2.25;;;17.40;67.70;;;;;;10411582;28;20030;-53
2023/11/17 10:02:00;;;;;;;6.18;2.38;;;17.40;67.60;;;;;;10411574;28;20473;-54
2023/11/17 10:07:02;;;;;;;3.70;1.70;;;17.40;67.60;;;;;;10412532;28;20033;-54
2023/11/17 10:12:05;;;;;;;6.97;2.63;;;17.30;67.70;;;;;;10410992;28;20061;-54
2023/11/17 10:17:09;;;;;;;3.22;1.75;;;17.40;67.70;;;;;;10411263;28;20033;-51
2023/11/17 10:22:10;;;;;;;5.07;1.73;;;17.40;67.80;;;;;;10412000;28;20033;-55
2023/11/17 10:27:11;;;;;;;4.40;3.00;;;17.40;67.90;;;;;;10410916;28;20131;-54
2023/11/17 10:32:18;;;;;;;3.83;1.98;;;17.30;68.00;;;;;;10411048;28;20057;-54
2023/11/17 10:37:19;;;;;;;2.95;1.60;;;17.40;68.00;;;;;;10410521;28;20030;-54
2023/11/17 10:42:21;;;;;;;3.20;1.63;;;17.30;68.50;;;;;;10411245;28;20048;-55
2023/11/17 10:47:24;;;;;;;4.63;1.98;;;17.20;69.00;;;;;;10411274;28;20476;-54
2023/11/17 10:52:26;;;;;;;6.90;2.38;;;17.10;69.00;;;;;;10411455;28;20041;-54
2023/11/17 10:57:27;;;;;;;4.63;2.13;;;17.10;69.00;;;;;;10409763;28;20025;-54
2023/11/17 11:02:29;;;;;;;4.18;1.98;;;17.10;69.10;;;;;;10409350;28;20041;-53
2023/11/17 11:07:45;;;;;;;3.97;1.80;;;17.10;69.20;;;;;;10409879;28;20029;-55
2023/11/17 11:12:46;;;;;;;4.03;2.15;;;17.10;68.80;;;;;;10409014;28;20040;-54
2023/11/17 11:17:56;;;;;;;2.38;1.23;;;17.10;69.10;;;;;;10410187;28;20033;-54
2023/11/17 11:22:57;;;;;;;5.10;2.17;;;17.10;70.20;;;;;;10408669;28;20033;-55
2023/11/17 11:28:03;;;;;;;3.20;1.73;;;17.10;69.70;;;;;;10408180;28;20025;-55
2023/11/17 11:33:04;;;;;;;6.63;2.40;;;16.90;70.80;;;;;;10410709;28;20599;-54
2023/11/17 11:38:08;;;;;;;2.65;1.70;;;17.00;71.00;;;;;;10409281;28;20030;-55
2023/11/17 11:43:09;;;;;;;3.90;1.67;;;16.90;71.30;;;;;;10408747;28;20065;-55
2023/11/17 11:48:10;;;;;;;5.68;2.63;;;16.80;71.50;;;;;;10409030;28;20408;-55
2023/11/17 11:53:33;;;;;;;5.15;2.10;;;16.80;71.20;;;;;;10419728;28;20076;-56
2023/11/17 11:58:40;;;;;;;7.15;2.35;;;16.80;70.80;;;;;;10423859;28;20042;-55
2023/11/17 12:03:46;;;;;;;5.80;3.20;;;16.90;71.10;;;;;;10408429;28;20033;-54
2023/11/17 12:09:08;;;;;;;4.85;2.45;;;16.90;71.00;;;;;;10417748;28;20121;-54
2023/11/17 12:14:09;;;;;;;6.90;3.15;;;16.80;71.20;;;;;;10408021;28;20104;-54
2023/11/17 12:19:10;;;;;;;6.85;3.35;;;16.70;71.50;;;;;;10408135;28;20030;-54
2023/11/17 12:24:13;;;;;;;11.23;3.10;;;16.60;72.30;;;;;;10412175;28;20021;-55
2023/11/17 12:29:43;;;;;;;6.90;2.88;;;16.50;72.50;;;;;;10413648;28;20102;-55
2023/11/17 12:34:44;;;;;;;;;;;16.60;72.60;;;;;;10313895;28;20053;-54
2023/11/17 12:39:45;;;;;;;7.82;3.13;;;16.60;72.40;;;;;;10320429;28;20281;-54
2023/11/17 12:44:47;;;;;;;5.38;2.72;;;16.60;72.20;;;;;;10320605;28;20038;-55
2023/11/17 12:49:54;;;;;;;4.22;2.30;;;16.60;72.30;;;;;;10321098;28;20042;-56
2023/11/17 12:55:10;;;;;;;6.38;2.50;;;16.50;72.30;;;;;;10320924;28;20173;-55
2023/11/17 13:00:21;;;;;;;3.92;2.35;;;16.40;72.30;;;;;;10320708;28;20034;-55
2023/11/17 13:05:22;;;;;;;4.00;2.30;;;16.40;72.40;;;;;;10305709;28;20097;-55
2023/11/17 13:10:23;;;;;;;5.65;2.78;;;16.30;72.50;;;;;;10357090;28;20041;-55
2023/11/17 13:15:26;;;;;;;5.38;2.97;;;16.30;72.50;;;;;;10407221;28;20030;-55
2023/11/17 13:20:30;;;;;;;5.75;2.90;;;16.20;72.60;;;;;;10407104;28;20030;-56
2023/11/17 13:25:31;;;;;;;16.35;3.47;;;16.30;72.10;;;;;;10410635;28;20084;-55
2023/11/17 13:30:32;;;;;;;6.15;2.60;;;16.50;71.90;;;;;;10414237;28;20096;-56
2023/11/17 13:35:33;;;;;;;8.98;3.20;;;16.70;71.60;;;;;;10414111;28;20069;-56
2023/11/17 13:40:36;;;;;;;5.80;2.45;;;16.80;70.80;;;;;;10414023;28;20103;-56
2023/11/17 13:45:38;;;;;;;12.35;2.55;;;16.90;71.50;;;;;;10413432;28;20033;-56
2023/11/17 13:50:39;;;;;;;8.90;3.00;;;16.90;71.40;;;;;;10414611;28;20404;-56
2023/11/17 13:55:41;;;;;;;6.00;3.03;;;16.90;70.70;;;;;;10428867;28;20048;-55
2023/11/17 14:00:44;;;;;;;4.68;2.75;;;16.90;70.60;;;;;;10428802;28;20033;-55
2023/11/17 14:05:45;;;;;;;7.78;3.13;;;16.90;70.40;;;;;;10433384;28;20048;-55
2023/11/17 14:10:46;;;;;;;3.40;2.38;;;16.90;70.40;;;;;;10413363;28;20489;-54
2023/11/17 14:15:46;;;;;;;5.40;2.72;;;16.90;70.20;;;;;;10412877;28;20037;-55
2023/11/17 14:20:47;;;;;;;4.25;2.58;;;16.80;70.30;;;;;;10412357;28;20033;-54
2023/11/17 14:25:48;;;;;;;8.10;3.47;;;16.90;70.00;;;;;;10416825;28;20465;-55
2023/11/17 14:30:48;;;;;;;6.88;2.80;;;16.90;69.80;;;;;;10412445;28;20549;-55
2023/11/17 14:35:50;;;;;;;6.25;2.50;;;16.90;70.20;;;;;;10414515;28;20055;-54
2023/11/17 14:40:50;;;;;;;6.57;2.42;;;16.90;69.70;;;;;;10419512;28;20025;-53
2023/11/17 14:45:51;;;;;;;5.72;2.28;;;17.00;69.60;;;;;;10428919;28;20627;-54
2023/11/17 14:50:52;;;;;;;8.95;2.63;;;17.00;70.30;;;;;;10411175;28;20496;-53
2023/11/17 14:55:53;;;;;;;8.68;2.28;;;17.10;70.10;;;;;;10411030;28;20402;-54
2023/11/17 15:00:53;;;;;;;11.80;2.40;;;17.00;70.50;;;;;;10410682;28;20037;-54
2023/11/17 15:05:54;;;;;;;10.23;4.63;;;17.00;70.50;;;;;;10410596;28;20030;-54
2023/11/17 15:10:56;;;;;;;12.55;3.15;;;17.10;70.60;;;;;;10410470;28;20025;-52
2023/11/17 15:15:57;;;;;;;12.55;3.30;;;17.10;70.70;;;;;;10409893;28;20480;-55
2023/11/17 15:20:58;;;;;;;19.70;3.60;;;17.00;70.60;;;;;;10410103;28;20453;-50
2023/11/17 15:25:59;;;;;;;13.50;3.63;;;17.00;70.80;;;;;;10409285;28;20032;-52
2023/11/17 15:31:00;;;;;;;15.73;4.70;;;16.90;70.70;;;;;;10410515;28;20057;-51
2023/11/17 15:36:00;;;;;;;14.35;4.35;;;16.90;70.80;;;;;;10409474;28;20033;-52
2023/11/17 15:41:01;;;;;;;10.13;3.67;;;17.00;70.40;;;;;;10409993;28;20033;-52
2023/11/17 15:46:03;;;;;;;11.50;3.72;;;17.00;70.40;;;;;;10409616;28;20050;-49
2023/11/17 15:51:05;;;;;;;13.50;4.90;;;16.90;70.50;;;;;;10409054;28;20038;-53
2023/11/17 15:56:07;;;;;;;14.52;4.38;;;17.00;70.10;;;;;;10405779;28;20025;-51
2023/11/17 16:01:09;;;;;;;12.23;4.10;;;17.00;69.80;;;;;;10408098;28;20025;-52
2023/11/17 16:06:10;;;;;;;16.73;3.85;;;17.10;69.50;;;;;;10408446;28;20075;-53
2023/11/17 16:11:11;;;;;;;16.33;5.85;;;17.10;69.50;;;;;;10407646;28;20076;-50
2023/11/17 16:16:14;;;;;;;17.25;4.30;;;17.10;69.50;;;;;;10406723;28;20028;-53
2023/11/17 16:21:17;;;;;;;27.52;6.85;;;17.10;69.70;;;;;;10400745;28;20120;-54
2023/11/17 16:26:18;;;;;;;18.52;5.15;;;17.00;70.40;;;;;;10406336;28;20061;-52
2023/11/17 16:31:20;;;;;;;16.30;4.80;;;16.90;70.10;;;;;;10408501;28;20041;-48
2023/11/17 16:36:23;;;;;;;19.10;10.13;;;16.90;71.20;;;;;;10394489;28;20470;-48
2023/11/17 16:41:24;;;;;;;17.85;8.15;;;16.90;70.40;;;;;;10385951;28;20073;-50
2023/11/17 16:46:25;;;;;;;21.65;7.90;;;16.90;70.30;;;;;;10408640;28;20028;-49
2023/11/17 16:51:26;;;;;;;14.68;7.47;;;17.00;70.70;;;;;;10405912;28;20037;-47
2023/11/17 16:56:27;;;;;;;14.05;6.18;;;17.00;70.10;;;;;;10407212;28;20025;-53
2023/11/17 17:01:27;;;;;;;11.73;5.68;;;17.10;71.60;;;;;;10441932;28;20030;-53
2023/11/17 17:06:31;;;;;;;12.15;4.88;;;17.30;71.30;;;;;;10413271;28;20036;-51
2023/11/17 17:11:31;;;;;;;16.10;5.93;;;17.40;70.40;;;;;;10406251;28;20029;-50
2023/11/17 17:16:33;;;;;;;13.10;5.38;;;17.30;70.60;;;;;;10407991;28;20045;-53
2023/11/17 17:21:34;;;;;;;18.48;6.18;;;17.20;71.90;;;;;;10414422;28;20052;-48
2023/11/17 17:26:38;;;;;;;18.40;7.43;;;17.20;71.90;;;;;;10401543;28;20033;-52
2023/11/17 17:31:39;;;;;;;21.33;5.85;;;17.20;71.00;;;;;;10395880;28;20116;-51
2023/11/17 17:36:39;;;;;;;15.20;4.75;;;17.10;71.30;;;;;;10409576;28;20036;-48
2023/11/17 17:41:41;;;;;;;12.10;4.45;;;17.00;70.90;;;;;;10413107;28;20025;-48
2023/11/17 17:46:42;;;;;;;14.68;4.88;;;16.90;71.40;;;;;;10412649;28;20099;-50
2023/11/17 17:51:43;;;;;;;18.20;4.80;;;17.00;71.60;;;;;;10416266;28;20473;-51
2023/11/17 17:56:44;;;;;;;11.85;4.75;;;17.00;70.70;;;;;;10413119;28;20040;-49
2023/11/17 18:01:45;;;;;;;10.90;5.13;;;17.00;70.40;;;;;;10413314;28;20032;-50
2023/11/17 18:06:46;;;;;;;10.27;4.30;;;17.00;70.20;;;;;;10412602;28;20543;-51
2023/11/17 18:11:48;;;;;;;9.13;4.20;;;17.00;70.00;;;;;;10421404;28;20036;-51
2023/11/17 18:16:49;;;;;;;10.00;4.25;;;17.00;69.90;;;;;;10425782;28;20652;-51
2023/11/17 18:21:49;;;;;;;19.38;4.28;;;17.00;69.60;;;;;;10412571;28;20079;-51
2023/11/17 18:26:55;;;;;;;7.63;5.00;;;17.00;69.50;;;;;;10411861;28;20090;-51
2023/11/17 18:31:56;;;;;;;10.63;3.22;;;17.10;69.50;;;;;;10411827;28;20057;-51
2023/11/17 18:36:57;;;;;;;8.52;4.22;;;17.10;69.30;;;;;;10411421;28;20116;-48
2023/11/17 18:42:02;;;;;;;6.03;3.50;;;17.10;69.10;;;;;;10411787;28;20033;-48
2023/11/17 18:47:03;;;;;;;6.18;3.33;;;17.10;69.00;;;;;;10411170;28;20036;-49
2023/11/17 18:52:04;;;;;;;7.50;3.40;;;17.10;69.00;;;;;;10410211;28;20384;-52
2023/11/17 18:57:04;;;;;;;7.38;3.05;;;17.10;68.80;;;;;;10410769;28;20061;-52
2023/11/17 19:02:06;;;;;;;5.05;3.33;;;17.10;69.30;;;;;;10411048;28;20030;-52
2023/11/17 19:07:08;;;;;;;5.45;3.30;;;17.10;68.60;;;;;;10407738;28;20029;-52
2023/11/17 19:12:15;;;;;;;5.68;3.55;;;17.00;68.80;;;;;;10411210;28;20033;-52
2023/11/17 19:17:15;;;;;;;7.22;3.70;;;17.00;68.50;;;;;;10417556;28;20045;-52
2023/11/17 19:22:16;;;;;;;6.45;3.38;;;17.10;68.40;;;;;;10409644;28;20038;-53
2023/11/17 19:27:18;;;;;;;5.90;2.88;;;17.10;68.40;;;;;;10409737;28;20037;-52
2023/11/17 19:32:22;;;;;;;5.60;3.30;;;17.10;68.40;;;;;;10409515;28;20068;-53
2023/11/17 19:37:25;;;;;;;7.20;3.58;;;17.00;68.30;;;;;;10410165;28;20068;-53
2023/11/17 19:42:25;;;;;;;6.88;3.03;;;17.10;68.30;;;;;;10426622;28;20063;-51
2023/11/17 19:47:26;;;;;;;7.68;3.50;;;17.10;68.30;;;;;;10424480;28;20079;-53
2023/11/17 19:52:27;;;;;;;4.72;3.00;;;17.00;68.20;;;;;;10424360;28;20030;-53
2023/11/17 19:57:28;;;;;;;4.95;3.03;;;17.10;68.20;;;;;;10406936;28;20038;-51
2023/11/17 20:02:29;;;;;;;4.35;3.03;;;17.10;68.10;;;;;;10406877;28;20055;-52
2023/11/17 20:07:30;;;;;;;6.53;4.07;;;17.00;67.70;;;;;;10407277;28;20408;-52
2023/11/17 20:12:31;;;;;;;4.47;2.65;;;17.10;67.60;;;;;;10408252;28;20087;-51
2023/11/17 20:17:33;;;;;;;6.70;3.03;;;17.00;67.80;;;;;;10410494;28;20065;-50
2023/11/17 20:22:33;;;;;;;7.75;2.90;;;16.90;68.00;;;;;;10417770;28;20520;-51
2023/11/17 20:27:35;;;;;;;6.88;3.60;;;17.00;68.30;;;;;;10416663;28;20032;-51
2023/11/17 20:32:37;;;;;;;5.22;3.25;;;16.90;68.50;;;;;;10410121;28;20087;-52
2023/11/17 20:37:37;;;;;;;4.90;2.95;;;16.80;68.80;;;;;;10422185;28;20034;-54
2023/11/17 20:42:38;;;;;;;6.30;3.63;;;16.70;69.00;;;;;;10428132;28;20104;-51
2023/11/17 20:47:39;;;;;;;7.90;3.70;;;16.60;69.20;;;;;;10415687;28;20155;-52
2023/11/17 20:52:40;;;;;;;5.40;3.38;;;16.50;69.30;;;;;;10416131;28;20038;-53
2023/11/17 20:57:43;;;;;;;6.57;3.88;;;16.50;69.60;;;;;;10415379;28;20030;-51
2023/11/17 21:02:44;;;;;;;7.13;4.25;;;16.40;69.70;;;;;;10415556;28;20079;-51
2023/11/17 21:07:50;;;;;;;5.25;3.70;;;16.30;69.90;;;;;;10414854;28;20542;-51
2023/11/17 21:12:52;;;;;;;8.88;4.60;;;16.30;70.10;;;;;;10415248;28;20652;-53
2023/11/17 21:17:52;;;;;;;6.18;3.38;;;16.30;70.20;;;;;;10414867;28;20030;-52
2023/11/17 21:22:53;;;;;;;7.65;4.65;;;16.20;70.20;;;;;;10414943;28;20029;-50
2023/11/17 21:27:55;;;;;;;7.00;4.40;;;16.20;70.30;;;;;;10414487;28;20030;-52
2023/11/17 21:32:57;;;;;;;6.28;3.90;;;16.10;70.40;;;;;;10414832;28;20050;-52
2023/11/17 21:37:57;;;;;;;8.15;4.70;;;16.10;70.60;;;;;;10414069;28;20053;-52
2023/11/17 21:42:58;;;;;;;7.75;4.00;;;16.00;70.60;;;;;;10414379;28;20682;-51
2023/11/17 21:47:59;;;;;;;12.38;4.88;;;16.00;70.80;;;;;;10413422;28;20369;-52
2023/11/17 21:52:59;;;;;;;7.03;5.10;;;16.00;71.00;;;;;;10413853;28;20025;-51
2023/11/17 21:58:00;;;;;;;6.15;4.10;;;15.90;71.10;;;;;;10413045;28;20055;-52
2023/11/17 22:03:01;;;;;;;5.95;3.78;;;15.90;71.20;;;;;;10413211;28;20025;-51
2023/11/17 22:08:02;;;;;;;7.30;4.13;;;15.90;71.30;;;;;;10411409;28;20025;-51
2023/11/17 22:13:05;;;;;;;7.13;3.97;;;15.80;71.20;;;;;;10412115;28;20033;-51
2023/11/17 22:18:05;;;;;;;6.28;4.45;;;15.80;71.30;;;;;;10411488;28;20560;-51
2023/11/17 22:23:07;;;;;;;7.32;4.97;;;15.80;71.30;;;;;;10412087;28;20030;-51
2023/11/17 22:28:08;;;;;;;7.10;5.53;;;15.80;71.40;;;;;;10411476;28;20038;-53
2023/11/17 22:33:09;;;;;;;7.05;4.35;;;15.80;71.10;;;;;;10412209;28;20076;-51
2023/11/17 22:38:09;;;;;;;6.25;4.47;;;15.70;71.20;;;;;;10411221;28;20055;-51
2023/11/17 22:43:10;;;;;;;7.00;4.65;;;15.70;71.40;;;;;;10411577;28;20025;-48
2023/11/17 22:48:11;;;;;;;6.75;4.18;;;15.70;71.50;;;;;;10411613;28;20092;-52
2023/11/17 22:53:11;;;;;;;6.15;4.00;;;15.70;71.60;;;;;;10411734;28;20026;-51
2023/11/17 22:58:12;;;;;;;5.57;4.25;;;15.70;71.70;;;;;;10410109;28;20364;-50
2023/11/17 23:03:13;;;;;;;5.75;4.20;;;15.60;71.60;;;;;;10411301;28;20018;-53
2023/11/17 23:08:17;;;;;;;6.03;4.55;;;15.60;71.50;;;;;;10410204;28;20108;-51
2023/11/17 23:13:18;;;;;;;6.13;4.15;;;15.60;71.60;;;;;;10410671;28;20025;-50
2023/11/17 23:18:19;;;;;;;7.15;4.50;;;15.60;71.40;;;;;;10409638;28;20037;-52
2023/11/17 23:23:20;;;;;;;5.55;4.28;;;15.60;71.50;;;;;;10409488;28;20018;-50
2023/11/17 23:28:21;;;;;;;5.57;3.78;;;15.60;71.50;;;;;;10409364;28;20672;-53
2023/11/17 23:33:25;;;;;;;5.15;4.40;;;15.60;71.60;;;;;;10410142;28;20045;-52
2023/11/17 23:38:25;;;;;;;6.25;4.50;;;15.50;71.60;;;;;;10409027;28;20032;-52
2023/11/17 23:43:26;;;;;;;6.40;4.68;;;15.50;71.50;;;;;;10409379;28;20029;-50
2023/11/17 23:48:28;;;;;;;6.28;4.82;;;15.50;71.70;;;;;;10408804;28;20033;-52
2023/11/17 23:53:29;;;;;;;7.25;5.55;;;15.50;71.80;;;;;;10409230;28;20112;-49
2023/11/17 23:58:29;;;;;;;5.22;3.88;;;15.50;71.80;;;;;;10409008;28;20029;-51
